createdAt,value
2023-01-26T00:01:34.806Z,70.37
2023-01-26T00:06:57.205Z,75.35
2023-01-26T00:12:19.734Z,70.40
2023-01-26T00:17:42.989Z,75.62
2023-01-26T00:23:05.323Z,77.10
2023-01-26T00:28:27.545Z,74.97
2023-01-26T00:33:49.910Z,72.58
2023-01-26T00:39:12.409Z,74.53
2023-01-26T00:44:34.686Z,71.20
2023-01-26T00:49:58.525Z,73.75
2023-01-26T00:55:21.427Z,75.40
2023-01-26T01:00:45.407Z,83.87
2023-01-26T01:06:07.934Z,78.15
2023-01-26T01:11:30.861Z,79.43
2023-01-26T01:16:54.209Z,74.10
2023-01-26T01:22:16.431Z,74.55
2023-01-26T01:27:38.652Z,75.47
2023-01-26T01:33:01.391Z,75.72
2023-01-26T01:38:23.604Z,74.43
2023-01-26T01:43:47.453Z,91.87
2023-01-26T01:49:14.620Z,91.72
2023-01-26T01:54:44.687Z,92.87
2023-01-26T02:00:14.483Z,92.40
2023-01-26T02:05:40.323Z,84.13
2023-01-26T02:11:07.095Z,79.73
2023-01-26T02:16:31.097Z,90.03
2023-01-26T02:21:54.139Z,90.47
2023-01-26T02:27:16.463Z,91.17
2023-01-26T02:32:39.206Z,85.35
2023-01-26T02:38:01.618Z,87.20
2023-01-26T02:43:24.030Z,87.12
2023-01-26T02:49:04.242Z,82.57
2023-01-26T02:54:44.139Z,89.22
2023-01-26T03:00:06.486Z,85.43
2023-01-26T03:05:29.043Z,80.47
2023-01-26T03:10:52.579Z,81.30
2023-01-26T03:16:17.515Z,84.57
2023-01-26T03:21:59.263Z,78.33
2023-01-26T03:27:24.375Z,91.28
2023-01-26T03:33:02.644Z,79.77
2023-01-26T03:38:25.330Z,92.60
2023-01-26T03:44:05.381Z,96.07
2023-01-26T03:55:19.402Z,89.33
2023-01-26T04:00:41.780Z,84.20
2023-01-26T04:06:23.068Z,86.03
2023-01-26T04:11:45.300Z,89.83
2023-01-26T04:17:26.345Z,85.73
2023-01-26T04:22:50.689Z,86.30
2023-01-26T04:28:12.950Z,90.50
2023-01-26T04:33:35.205Z,88.70
2023-01-26T04:38:57.946Z,90.87
2023-01-26T04:44:20.218Z,90.00
2023-01-26T04:49:43.024Z,96.77
2023-01-26T04:55:05.256Z,88.33
2023-01-26T05:00:28.145Z,97.87
2023-01-26T05:05:54.135Z,99.87
2023-01-26T05:11:16.413Z,95.00
2023-01-26T05:16:39.238Z,92.60
2023-01-26T05:22:02.049Z,91.43
2023-01-26T05:27:24.747Z,85.93
2023-01-26T05:32:48.377Z,89.40
2023-01-26T05:38:10.679Z,87.30
2023-01-26T05:43:33.106Z,82.80
2023-01-26T05:48:55.385Z,90.87
2023-01-26T05:54:17.889Z,84.62
2023-01-26T05:59:40.200Z,75.83
2023-01-26T06:05:02.864Z,75.53
2023-01-26T06:10:26.685Z,77.60
2023-01-26T06:15:48.980Z,65.93
2023-01-26T06:21:12.412Z,58.13
2023-01-26T06:26:34.884Z,57.83
2023-01-26T06:31:57.095Z,56.20
2023-01-26T06:37:19.907Z,56.23
2023-01-26T06:42:42.135Z,59.07
2023-01-26T06:48:06.003Z,50.10
2023-01-26T06:53:43.158Z,51.63
2023-01-26T06:59:06.127Z,47.87
2023-01-26T07:04:28.704Z,48.53
2023-01-26T07:09:51.575Z,47.40
2023-01-26T07:15:14.450Z,49.03
2023-01-26T07:20:41.084Z,52.57
2023-01-26T07:26:03.301Z,51.33
2023-01-26T07:31:27.326Z,39.30
2023-01-26T07:36:49.561Z,39.88
2023-01-26T07:42:11.817Z,49.83
2023-01-26T07:47:34.749Z,48.55
2023-01-26T07:52:57.417Z,45.17
2023-01-26T07:58:20.621Z,40.17
2023-01-26T08:03:45.464Z,44.30
2023-01-26T08:09:08.432Z,47.00
2023-01-26T08:14:45.180Z,39.63
2023-01-26T08:19:54.672Z,47.77
2023-01-26T08:25:17.040Z,44.77
2023-01-26T08:30:39.398Z,45.87
2023-01-26T08:36:04.213Z,48.07
2023-01-26T08:41:26.770Z,47.93
2023-01-26T08:46:52.577Z,46.40
2023-01-26T08:52:15.022Z,41.83
2023-01-26T08:57:38.594Z,51.43
2023-01-26T09:03:11.677Z,45.45
2023-01-26T09:08:35.060Z,45.13
2023-01-26T09:13:58.273Z,45.97
2023-01-26T09:19:21.491Z,40.97
2023-01-26T09:24:43.893Z,43.50
2023-01-26T09:30:07.154Z,32.13
2023-01-26T09:35:29.848Z,38.25
2023-01-26T09:41:00.052Z,40.88
2023-01-26T09:46:47.856Z,35.68
2023-01-26T09:52:14.977Z,42.87
2023-01-26T09:57:54.160Z,38.27
2023-01-26T10:03:56.560Z,41.40
2023-01-26T10:09:33.644Z,41.27
2023-01-26T10:15:10.164Z,47.07
2023-01-26T10:20:48.915Z,43.83
2023-01-26T10:26:27.617Z,46.47
2023-01-26T10:31:51.692Z,38.43
2023-01-26T10:43:17.773Z,39.30
2023-01-26T10:48:41.572Z,37.47
2023-01-26T10:54:20.100Z,37.77
2023-01-26T11:00:08.719Z,39.23
2023-01-26T11:05:34.311Z,34.67
2023-01-26T11:11:07.501Z,40.13
2023-01-26T11:16:35.968Z,36.50
2023-01-26T11:22:13.968Z,34.53
2023-01-26T11:28:05.599Z,38.07
2023-01-26T11:33:41.935Z,39.73
2023-01-26T11:39:18.291Z,38.67
2023-01-26T11:45:08.596Z,41.33
2023-01-26T11:56:28.073Z,39.27
2023-01-26T12:02:04.635Z,36.07
2023-01-26T12:07:31.996Z,33.95
2023-01-26T12:12:59.416Z,35.58
2023-01-26T12:18:53.252Z,38.50
2023-01-26T12:24:09.317Z,48.37
2023-01-26T12:29:51.253Z,35.83
2023-01-26T12:35:15.796Z,36.80
2023-01-26T12:41:07.027Z,42.97
2023-01-26T12:46:30.797Z,45.47
2023-01-26T12:51:57.938Z,40.43
2023-01-26T12:57:25.041Z,39.93
2023-01-26T13:02:51.354Z,43.60
2023-01-26T13:08:39.513Z,43.60
2023-01-26T13:14:30.021Z,38.60
2023-01-26T13:25:28.715Z,46.27
2023-01-26T13:30:58.418Z,46.92
2023-01-26T13:36:35.169Z,46.07
2023-01-26T13:42:00.544Z,44.53
2023-01-26T13:47:31.380Z,46.53
2023-01-26T13:52:55.229Z,46.47
2023-01-26T13:58:35.335Z,47.40
2023-01-26T14:03:59.771Z,41.37
2023-01-26T14:09:24.387Z,48.07
2023-01-26T14:14:49.381Z,44.97
2023-01-26T14:20:26.889Z,45.87
2023-01-26T14:26:03.668Z,51.70
2023-01-26T14:31:37.467Z,45.97
2023-01-26T14:37:16.267Z,53.63
2023-01-26T14:42:39.634Z,46.37
2023-01-26T14:48:01.970Z,48.33
2023-01-26T14:53:31.991Z,52.27
2023-01-26T14:58:56.125Z,53.20
2023-01-26T15:04:31.915Z,52.17
2023-01-26T15:10:00.249Z,50.73
2023-01-26T15:15:26.968Z,54.33
2023-01-26T15:20:54.047Z,51.90
2023-01-26T15:26:21.129Z,61.47
2023-01-26T15:31:47.619Z,53.83
2023-01-26T15:37:14.811Z,57.37
2023-01-26T15:42:47.249Z,59.00
2023-01-26T15:48:09.628Z,52.50
2023-01-26T15:53:34.141Z,53.63
2023-01-26T15:58:56.941Z,54.90
2023-01-26T16:04:19.493Z,50.40
2023-01-26T16:09:41.921Z,57.73
2023-01-26T16:15:05.012Z,56.23
2023-01-26T16:20:29.018Z,61.03
2023-01-26T16:25:51.323Z,52.57
2023-01-26T16:31:21.539Z,57.57
2023-01-26T16:36:43.864Z,62.80
2023-01-26T16:42:06.288Z,57.50
2023-01-26T16:47:29.489Z,54.23
2023-01-26T16:52:53.672Z,59.87
2023-01-26T16:58:17.356Z,58.00
2023-01-26T17:03:40.196Z,68.95
2023-01-26T17:09:03.177Z,67.10
2023-01-26T17:14:25.631Z,64.77
2023-01-26T17:19:49.781Z,103.40
2023-01-26T17:25:14.544Z,67.73
2023-01-26T17:30:37.356Z,68.57
2023-01-26T17:36:06.708Z,74.50
2023-01-26T17:41:30.123Z,74.00
2023-01-26T17:46:52.989Z,69.10
2023-01-26T17:52:20.347Z,72.80
2023-01-26T17:57:45.211Z,67.27
2023-01-26T18:03:07.506Z,65.08
2023-01-26T18:08:30.679Z,65.75
2023-01-26T18:13:53.063Z,85.20
2023-01-26T18:19:15.913Z,83.10
2023-01-26T18:24:38.178Z,88.65
2023-01-26T18:30:00.379Z,91.40
2023-01-26T18:35:24.154Z,93.72
2023-01-26T18:40:46.353Z,116.22
2023-01-26T18:46:08.851Z,98.57
2023-01-26T18:51:31.469Z,95.47
2023-01-26T18:56:53.885Z,104.17
2023-01-26T19:02:19.897Z,127.53
2023-01-26T19:07:42.896Z,101.03
2023-01-26T19:13:07.210Z,97.03
2023-01-26T19:18:29.737Z,94.63
2023-01-26T19:23:52.512Z,92.55
2023-01-26T19:29:15.861Z,89.72
2023-01-26T19:34:38.903Z,96.95
2023-01-26T19:40:01.285Z,150.33
2023-01-26T19:45:25.211Z,91.40
2023-01-26T19:50:47.631Z,77.03
2023-01-26T19:56:14.595Z,71.80
2023-01-26T20:01:43.430Z,85.60
2023-01-26T20:07:08.353Z,52.70
2023-01-26T20:12:31.167Z,59.43
2023-01-26T20:17:53.617Z,67.23
2023-01-26T20:23:15.915Z,67.40
2023-01-26T20:28:40.785Z,62.43
2023-01-26T20:34:05.312Z,65.80
2023-01-26T20:39:31.123Z,59.03
2023-01-26T20:44:55.263Z,61.67
2023-01-26T20:50:17.993Z,65.37
2023-01-26T20:55:40.610Z,65.80
2023-01-26T21:01:05.807Z,65.27
2023-01-26T21:06:31.324Z,75.37
2023-01-26T21:11:54.226Z,73.23
2023-01-26T21:17:20.607Z,75.93
2023-01-26T21:22:44.701Z,75.47
2023-01-26T21:28:08.094Z,62.98
2023-01-26T21:33:30.710Z,72.47
2023-01-26T21:38:56.969Z,75.03
2023-01-26T21:44:32.595Z,64.67
2023-01-26T21:49:56.373Z,63.17
2023-01-26T21:55:18.977Z,68.27
2023-01-26T22:00:42.953Z,79.90
2023-01-26T22:06:12.175Z,67.93
2023-01-26T22:11:35.085Z,71.33
2023-01-26T22:16:58.543Z,71.07
2023-01-26T22:22:20.894Z,74.80
2023-01-26T22:27:44.854Z,77.13
2023-01-26T22:33:07.662Z,70.17
2023-01-26T22:38:29.937Z,68.50
2023-01-26T22:43:54.764Z,71.87
2023-01-26T22:49:17.621Z,76.22
2023-01-26T22:54:39.906Z,78.60
2023-01-26T23:00:02.179Z,68.92
2023-01-26T23:05:24.634Z,65.40
2023-01-26T23:10:47.651Z,71.07
2023-01-26T23:16:10.181Z,66.70
2023-01-26T23:21:33.300Z,75.55
2023-01-26T23:26:55.556Z,74.05
2023-01-26T23:32:18.452Z,75.90
2023-01-26T23:37:40.743Z,74.60
2023-01-26T23:43:15.795Z,100.38
2023-01-26T23:48:27.431Z,75.70
2023-01-26T23:53:50.652Z,70.92
2023-01-26T23:59:12.887Z,69.37
